createdAt,value
2018-01-18T00:00:42.380Z,997.20
2018-01-18T00:01:42.397Z,997.22
2018-01-18T00:02:42.419Z,997.23
2018-01-18T00:03:42.437Z,997.20
2018-01-18T00:04:42.448Z,997.17
2018-01-18T00:05:42.464Z,997.21
2018-01-18T00:06:42.483Z,997.18
2018-01-18T00:07:42.553Z,997.16
2018-01-18T00:08:42.524Z,997.09
2018-01-18T00:09:42.539Z,997.12
2018-01-18T00:10:42.548Z,997.10
2018-01-18T00:11:42.571Z,997.09
2018-01-18T00:12:42.588Z,997.06
2018-01-18T00:13:42.603Z,997.13
2018-01-18T00:14:42.615Z,997.10
2018-01-18T00:15:42.638Z,997.06
2018-01-18T00:16:42.649Z,997.06
2018-01-18T00:17:42.673Z,997.04
2018-01-18T00:18:42.684Z,997.01
2018-01-18T00:19:42.706Z,996.98
2018-01-18T00:20:42.717Z,996.97
2018-01-18T00:21:42.733Z,996.92
2018-01-18T00:22:42.749Z,996.90
2018-01-18T00:23:42.772Z,996.82
2018-01-18T00:24:42.784Z,996.86
2018-01-18T00:25:42.810Z,996.88
2018-01-18T00:26:42.818Z,996.88
2018-01-18T00:27:42.835Z,996.84
2018-01-18T00:28:42.852Z,996.83
2018-01-18T00:29:42.868Z,996.82
2018-01-18T00:30:42.890Z,996.85
2018-01-18T00:31:42.902Z,996.77
2018-01-18T00:32:42.926Z,996.80
2018-01-18T00:33:42.936Z,996.81
2018-01-18T00:34:42.962Z,996.80
2018-01-18T00:35:42.970Z,996.74
2018-01-18T00:36:42.993Z,996.65
2018-01-18T00:37:43.004Z,996.65
2018-01-18T00:38:43.026Z,996.70
2018-01-18T00:39:43.039Z,996.69
2018-01-18T00:40:43.062Z,996.62
2018-01-18T00:41:43.071Z,996.62
2018-01-18T00:42:43.094Z,996.59
2018-01-18T00:43:43.105Z,996.44
2018-01-18T00:44:43.128Z,996.43
2018-01-18T00:45:43.145Z,996.43
2018-01-18T00:46:43.157Z,996.46
2018-01-18T00:47:43.174Z,996.35
2018-01-18T00:48:43.196Z,996.37
2018-01-18T00:49:43.213Z,996.40
2018-01-18T00:50:43.224Z,996.39
2018-01-18T00:51:43.240Z,996.35
2018-01-18T00:52:43.267Z,996.24
2018-01-18T00:53:43.281Z,996.23
2018-01-18T00:54:43.293Z,996.24
2018-01-18T00:55:43.316Z,996.25
2018-01-18T00:56:43.326Z,996.25
2018-01-18T00:57:43.350Z,996.30
2018-01-18T00:58:43.360Z,996.21
2018-01-18T00:59:43.389Z,996.15
2018-01-18T01:00:43.395Z,996.23
2018-01-18T01:01:43.413Z,996.19
2018-01-18T01:02:43.434Z,996.17
2018-01-18T01:03:43.445Z,996.16
2018-01-18T01:04:43.470Z,996.16
2018-01-18T01:05:43.480Z,996.14
2018-01-18T01:06:43.505Z,996.08
2018-01-18T01:07:43.520Z,996.04
2018-01-18T01:08:43.543Z,996.00
2018-01-18T01:09:43.559Z,995.98
2018-01-18T01:10:43.570Z,996.03
2018-01-18T01:11:43.587Z,996.01
2018-01-18T01:12:43.611Z,995.99
2018-01-18T01:13:43.627Z,996.03
2018-01-18T01:14:43.638Z,995.98
2018-01-18T01:15:43.657Z,995.91
2018-01-18T01:16:43.679Z,995.91
2018-01-18T01:17:43.698Z,995.85
2018-01-18T01:18:43.712Z,995.79
2018-01-18T01:19:43.730Z,995.77
2018-01-18T01:20:43.742Z,995.71
2018-01-18T01:21:43.764Z,995.69
2018-01-18T01:22:43.775Z,995.63
2018-01-18T01:23:43.797Z,995.75
2018-01-18T01:24:43.810Z,995.70
2018-01-18T01:25:43.825Z,995.66
2018-01-18T01:26:43.849Z,995.63
2018-01-18T01:27:43.866Z,995.59
2018-01-18T01:28:43.879Z,995.56
2018-01-18T01:29:43.894Z,995.52
2018-01-18T01:30:43.918Z,995.48
2018-01-18T01:31:43.933Z,995.50
2018-01-18T01:32:43.948Z,995.44
2018-01-18T01:33:43.969Z,995.49
2018-01-18T01:34:43.980Z,995.42
2018-01-18T01:35:43.997Z,995.39
2018-01-18T01:36:44.019Z,995.36
2018-01-18T01:37:44.038Z,995.29
2018-01-18T01:38:44.049Z,995.17
2018-01-18T01:39:44.067Z,995.12
2018-01-18T01:40:44.089Z,995.11
2018-01-18T01:41:44.106Z,995.20
2018-01-18T01:42:44.117Z,995.12
2018-01-18T01:43:44.135Z,995.08
2018-01-18T01:44:44.158Z,995.17
2018-01-18T01:45:44.178Z,995.10
2018-01-18T01:46:44.186Z,995.05
2018-01-18T01:47:44.205Z,995.02
2018-01-18T01:48:44.230Z,995.00
2018-01-18T01:49:44.242Z,995.04
2018-01-18T01:50:44.255Z,995.03
2018-01-18T01:51:44.272Z,995.15
2018-01-18T01:52:44.296Z,995.08
2018-01-18T01:53:44.313Z,995.11
2018-01-18T01:54:44.324Z,995.06
2018-01-18T01:55:44.342Z,995.00
2018-01-18T01:56:44.365Z,995.02
2018-01-18T01:57:44.376Z,994.99
2018-01-18T01:58:44.398Z,994.92
2018-01-18T01:59:44.411Z,994.85
2018-01-18T02:00:44.434Z,994.79
2018-01-18T02:01:44.445Z,994.71
2018-01-18T02:02:44.469Z,994.72
2018-01-18T02:03:44.481Z,994.69
2018-01-18T02:04:44.510Z,994.61
2018-01-18T02:05:44.515Z,994.57
2018-01-18T02:06:44.538Z,994.55
2018-01-18T02:07:44.550Z,994.51
2018-01-18T02:08:44.573Z,994.56
2018-01-18T02:09:44.584Z,994.52
2018-01-18T02:10:44.607Z,994.47
2018-01-18T02:11:44.620Z,994.52
2018-01-18T02:12:44.642Z,994.52
2018-01-18T02:13:44.665Z,994.43
2018-01-18T02:14:44.671Z,994.34
2018-01-18T02:15:44.693Z,994.40
2018-01-18T02:16:44.706Z,994.26
2018-01-18T02:17:44.729Z,994.27
2018-01-18T02:18:44.741Z,994.28
2018-01-18T02:19:44.764Z,994.26
2018-01-18T02:20:44.776Z,994.18
2018-01-18T02:21:44.798Z,994.16
2018-01-18T02:22:44.810Z,994.09
2018-01-18T02:23:44.834Z,994.01
2018-01-18T02:24:44.846Z,994.05
2018-01-18T02:25:44.868Z,994.08
2018-01-18T02:26:44.880Z,993.97
2018-01-18T02:27:44.904Z,993.92
2018-01-18T02:28:44.916Z,993.92
2018-01-18T02:29:44.938Z,993.85
2018-01-18T02:30:44.950Z,993.80
2018-01-18T02:31:44.968Z,993.77
2018-01-18T02:32:44.991Z,993.70
2018-01-18T02:33:45.008Z,993.70
2018-01-18T02:34:45.020Z,993.69
2018-01-18T02:35:45.038Z,993.64
2018-01-18T02:36:45.061Z,993.61
2018-01-18T02:37:45.077Z,993.55
2018-01-18T02:38:45.089Z,993.55
2018-01-18T02:39:45.107Z,993.45
2018-01-18T02:40:45.135Z,993.47
2018-01-18T02:41:45.146Z,993.58
2018-01-18T02:42:45.159Z,993.44
2018-01-18T02:43:45.176Z,993.35
2018-01-18T02:44:45.199Z,993.35
2018-01-18T02:45:45.216Z,993.28
2018-01-18T02:46:45.229Z,993.31
2018-01-18T02:47:45.309Z,993.20
2018-01-18T02:48:45.265Z,993.24
2018-01-18T02:49:45.285Z,993.16
2018-01-18T02:50:45.297Z,993.10
2018-01-18T02:51:45.321Z,993.13
2018-01-18T02:52:45.334Z,993.10
2018-01-18T02:53:45.349Z,993.07
2018-01-18T02:54:45.373Z,993.07
2018-01-18T02:55:45.390Z,992.99
2018-01-18T02:56:45.414Z,992.97
2018-01-18T02:57:45.420Z,992.99
2018-01-18T02:58:45.436Z,992.98
2018-01-18T02:59:45.461Z,993.00
2018-01-18T03:00:45.471Z,992.95
2018-01-18T03:01:45.488Z,992.93
2018-01-18T03:02:45.511Z,992.90
2018-01-18T03:03:45.524Z,992.98
2018-01-18T03:04:45.546Z,992.98
2018-01-18T03:05:45.555Z,992.98
2018-01-18T03:06:45.581Z,993.09
2018-01-18T03:07:45.592Z,993.01
2018-01-18T03:08:45.615Z,992.93
2018-01-18T03:09:45.625Z,992.88
2018-01-18T03:10:45.650Z,992.70
2018-01-18T03:11:45.661Z,992.75
2018-01-18T03:12:45.679Z,992.70
2018-01-18T03:13:45.696Z,992.73
2018-01-18T03:14:45.712Z,992.70
2018-01-18T03:15:45.735Z,992.69
2018-01-18T03:16:45.754Z,992.62
2018-01-18T03:17:45.769Z,992.57
2018-01-18T03:18:45.782Z,992.53
2018-01-18T03:19:45.799Z,992.46
2018-01-18T03:20:45.823Z,992.40
2018-01-18T03:21:45.840Z,992.34
2018-01-18T03:22:45.851Z,992.26
2018-01-18T03:23:45.869Z,992.21
2018-01-18T03:24:45.892Z,992.24
2018-01-18T03:25:45.909Z,992.08
2018-01-18T03:26:45.926Z,992.04
2018-01-18T03:27:45.944Z,991.98
2018-01-18T03:28:45.962Z,991.93
2018-01-18T03:29:45.973Z,991.91
2018-01-18T03:30:45.997Z,991.87
2018-01-18T03:31:46.013Z,991.75
2018-01-18T03:32:46.025Z,991.73
2018-01-18T03:33:46.042Z,991.70
2018-01-18T03:34:46.066Z,991.66
2018-01-18T03:35:46.084Z,991.62
2018-01-18T03:36:46.095Z,991.72
2018-01-18T03:37:46.112Z,991.64
2018-01-18T03:38:46.135Z,991.55
2018-01-18T03:39:46.152Z,991.49
2018-01-18T03:40:46.164Z,991.46
2018-01-18T03:41:46.181Z,991.47
2018-01-18T03:42:46.199Z,991.46
2018-01-18T03:43:46.223Z,991.43
2018-01-18T03:44:46.240Z,991.39
2018-01-18T03:45:46.257Z,991.32
2018-01-18T03:46:46.268Z,991.36
2018-01-18T03:47:46.291Z,991.32
2018-01-18T03:48:46.304Z,991.22
2018-01-18T03:49:46.325Z,991.15
2018-01-18T03:50:46.340Z,991.12
2018-01-18T03:51:46.359Z,990.99
2018-01-18T03:52:46.380Z,990.90
2018-01-18T03:53:46.396Z,990.81
2018-01-18T03:54:46.408Z,990.91
2018-01-18T03:55:46.425Z,990.90
2018-01-18T03:56:46.450Z,990.78
2018-01-18T03:57:46.461Z,990.78
2018-01-18T03:58:46.484Z,990.74
2018-01-18T03:59:46.502Z,990.68
2018-01-18T04:00:46.519Z,990.57
2018-01-18T04:01:46.531Z,990.42
2018-01-18T04:02:46.548Z,990.46
2018-01-18T04:03:46.571Z,990.30
2018-01-18T04:04:46.584Z,990.27
2018-01-18T04:05:46.606Z,990.15
2018-01-18T04:06:46.617Z,990.19
2018-01-18T04:07:46.640Z,990.05
2018-01-18T04:08:46.653Z,989.99
2018-01-18T04:09:46.675Z,990.01
2018-01-18T04:10:46.689Z,990.00
2018-01-18T04:11:46.711Z,989.86
2018-01-18T04:12:46.723Z,989.76
2018-01-18T04:13:46.749Z,989.79
2018-01-18T04:14:46.762Z,989.70
2018-01-18T04:15:46.775Z,989.66
2018-01-18T04:16:46.792Z,989.57
2018-01-18T04:17:46.810Z,989.56
2018-01-18T04:18:46.827Z,989.57
2018-01-18T04:19:46.887Z,989.45
2018-01-18T04:20:46.905Z,989.42
2018-01-18T04:21:46.880Z,989.38
2018-01-18T04:22:46.903Z,989.31
2018-01-18T04:23:46.916Z,989.27
2018-01-18T04:24:46.938Z,989.22
2018-01-18T04:25:46.948Z,989.00
2018-01-18T04:26:46.972Z,988.98
2018-01-18T04:27:46.984Z,989.03
2018-01-18T04:28:47.008Z,988.97
2018-01-18T04:29:47.024Z,988.95
2018-01-18T04:30:47.043Z,988.90
2018-01-18T04:31:47.059Z,988.80
2018-01-18T04:32:47.076Z,988.78
2018-01-18T04:33:47.088Z,988.67
2018-01-18T04:34:47.111Z,988.47
2018-01-18T04:35:47.130Z,988.46
2018-01-18T04:36:47.141Z,988.33
2018-01-18T04:37:47.164Z,988.25
2018-01-18T04:38:47.177Z,988.22
2018-01-18T04:39:47.193Z,988.16
2018-01-18T04:40:47.216Z,988.12
2018-01-18T04:41:47.233Z,988.03
2018-01-18T04:42:47.244Z,987.97
2018-01-18T04:43:47.263Z,987.92
2018-01-18T04:44:47.285Z,987.88
2018-01-18T04:45:47.295Z,987.79
2018-01-18T04:46:47.319Z,987.73
2018-01-18T04:47:47.337Z,987.64
2018-01-18T04:48:47.354Z,987.63
2018-01-18T04:49:47.365Z,987.53
2018-01-18T04:50:47.382Z,987.52
2018-01-18T04:51:47.405Z,987.40
2018-01-18T04:52:47.417Z,987.45
2018-01-18T04:53:47.439Z,987.35
2018-01-18T04:54:47.452Z,987.31
2018-01-18T04:55:47.473Z,987.22
2018-01-18T04:56:47.485Z,987.16
2018-01-18T04:57:47.507Z,987.09
2018-01-18T04:58:47.520Z,987.05
2018-01-18T04:59:47.541Z,987.04
2018-01-18T05:00:47.554Z,987.02
2018-01-18T05:01:47.575Z,986.91
2018-01-18T05:02:47.587Z,986.87
2018-01-18T05:03:47.611Z,986.75
2018-01-18T05:04:47.623Z,986.77
2018-01-18T05:05:47.644Z,986.68
2018-01-18T05:06:47.655Z,986.59
2018-01-18T05:07:47.680Z,986.47
2018-01-18T05:08:47.689Z,986.49
2018-01-18T05:09:47.712Z,986.43
2018-01-18T05:10:47.723Z,986.37
2018-01-18T05:11:47.741Z,986.30
2018-01-18T05:12:47.766Z,986.26
2018-01-18T05:13:47.778Z,986.27
2018-01-18T05:14:47.793Z,986.22
2018-01-18T05:15:47.808Z,986.07
2018-01-18T05:16:47.830Z,986.05
2018-01-18T05:17:47.846Z,985.93
2018-01-18T05:18:47.859Z,985.95
2018-01-18T05:19:47.877Z,985.84
2018-01-18T05:20:47.897Z,985.73
2018-01-18T05:21:47.965Z,985.64
2018-01-18T05:22:47.927Z,985.58
2018-01-18T05:23:47.942Z,985.40
2018-01-18T05:24:47.967Z,985.31
2018-01-18T05:25:47.982Z,985.35
2018-01-18T05:26:47.993Z,985.37
2018-01-18T05:27:48.011Z,985.25
2018-01-18T05:28:48.033Z,985.20
2018-01-18T05:29:48.049Z,985.17
2018-01-18T05:30:48.062Z,985.18
2018-01-18T05:31:48.088Z,985.16
2018-01-18T05:32:48.101Z,985.05
2018-01-18T05:33:48.116Z,985.09
2018-01-18T05:34:48.129Z,984.96
2018-01-18T05:35:48.144Z,985.05
2018-01-18T05:36:48.167Z,985.10
2018-01-18T05:37:48.188Z,985.19
2018-01-18T05:38:48.194Z,985.01
2018-01-18T05:39:48.226Z,984.94
2018-01-18T05:40:48.236Z,984.78
2018-01-18T05:41:48.244Z,984.71
2018-01-18T05:42:48.267Z,984.60
2018-01-18T05:43:48.278Z,984.55
2018-01-18T05:44:48.300Z,984.42
2018-01-18T05:45:48.310Z,984.29
2018-01-18T05:46:48.332Z,984.31
2018-01-18T05:47:48.345Z,984.22
2018-01-18T05:48:48.366Z,984.08
2018-01-18T05:49:48.382Z,984.36
2018-01-18T05:50:48.400Z,984.16
2018-01-18T05:51:48.412Z,984.16
2018-01-18T05:52:48.434Z,984.03
2018-01-18T05:53:48.443Z,984.23
2018-01-18T05:54:48.466Z,984.07
2018-01-18T05:55:48.477Z,984.03
2018-01-18T05:56:48.501Z,983.87
2018-01-18T05:57:48.516Z,983.82
2018-01-18T05:58:48.526Z,983.75
2018-01-18T05:59:48.543Z,983.64
2018-01-18T06:00:48.575Z,983.66
2018-01-18T06:01:48.581Z,983.71
2018-01-18T06:02:48.594Z,983.65
2018-01-18T06:03:48.610Z,983.51
2018-01-18T06:04:48.632Z,983.47
2018-01-18T06:05:48.648Z,983.38
2018-01-18T06:06:48.661Z,983.30
2018-01-18T06:07:48.684Z,983.26
2018-01-18T06:08:48.693Z,983.38
2018-01-18T06:09:48.714Z,983.13
2018-01-18T06:10:48.725Z,983.01
2018-01-18T06:11:48.747Z,983.00
2018-01-18T06:12:48.758Z,982.83
2018-01-18T06:13:48.775Z,982.88
2018-01-18T06:14:48.797Z,982.77
2018-01-18T06:15:48.814Z,982.63
2018-01-18T06:16:48.825Z,982.63
2018-01-18T06:17:48.840Z,982.62
2018-01-18T06:18:48.869Z,982.50
2018-01-18T06:19:48.880Z,982.55
2018-01-18T06:20:48.891Z,982.48
2018-01-18T06:21:48.914Z,982.13
2018-01-18T06:22:48.925Z,982.32
2018-01-18T06:23:48.942Z,982.30
2018-01-18T06:24:48.963Z,982.14
2018-01-18T06:25:48.979Z,982.19
2018-01-18T06:26:48.994Z,982.25
2018-01-18T06:27:49.014Z,982.15
2018-01-18T06:28:49.030Z,982.03
2018-01-18T06:29:49.039Z,981.98
2018-01-18T06:30:49.062Z,981.96
2018-01-18T06:31:49.074Z,981.85
2018-01-18T06:32:49.096Z,981.97
2018-01-18T06:33:49.108Z,981.82
2018-01-18T06:34:49.130Z,981.76
2018-01-18T06:35:49.140Z,981.53
2018-01-18T06:36:49.163Z,981.43
2018-01-18T06:37:49.181Z,981.48
2018-01-18T06:38:49.191Z,981.37
2018-01-18T06:39:49.262Z,981.31
2018-01-18T06:40:49.228Z,981.57
2018-01-18T06:41:49.246Z,981.55
2018-01-18T06:42:49.257Z,981.28
2018-01-18T06:43:49.274Z,981.55
2018-01-18T06:44:49.297Z,981.49
2018-01-18T06:45:49.313Z,981.49
2018-01-18T06:46:49.325Z,981.39
2018-01-18T06:47:49.347Z,981.27
2018-01-18T06:48:49.359Z,981.28
2018-01-18T06:49:49.380Z,981.21
2018-01-18T06:50:49.392Z,981.14
2018-01-18T06:51:49.414Z,981.12
2018-01-18T06:52:49.425Z,981.18
2018-01-18T06:53:49.442Z,981.16
2018-01-18T06:54:49.464Z,981.01
2018-01-18T06:55:49.477Z,981.09
2018-01-18T06:56:49.499Z,980.91
2018-01-18T06:57:49.510Z,980.91
2018-01-18T06:58:49.533Z,980.98
2018-01-18T06:59:49.543Z,980.87
2018-01-18T07:00:49.566Z,980.81
2018-01-18T07:01:49.581Z,980.67
2018-01-18T07:02:49.599Z,980.66
2018-01-18T07:03:49.612Z,980.69
2018-01-18T07:04:49.636Z,980.46
2018-01-18T07:05:49.645Z,980.67
2018-01-18T07:06:49.668Z,980.57
2018-01-18T07:07:49.679Z,980.54
2018-01-18T07:08:49.703Z,980.48
2018-01-18T07:09:49.720Z,980.32
2018-01-18T07:10:49.730Z,980.28
2018-01-18T07:11:49.753Z,980.38
2018-01-18T07:12:49.771Z,980.33
2018-01-18T07:13:49.788Z,980.25
2018-01-18T07:14:49.805Z,980.21
2018-01-18T07:15:49.822Z,980.08
2018-01-18T07:16:49.838Z,980.08
2018-01-18T07:17:49.857Z,979.93
2018-01-18T07:18:49.869Z,979.91
2018-01-18T07:19:49.887Z,979.87
2018-01-18T07:20:49.909Z,979.74
2018-01-18T07:21:49.926Z,979.66
2018-01-18T07:22:49.937Z,979.72
2018-01-18T07:23:49.955Z,979.74
2018-01-18T07:24:49.979Z,979.73
2018-01-18T07:25:49.989Z,979.67
2018-01-18T07:26:50.013Z,979.41
2018-01-18T07:27:50.030Z,979.45
2018-01-18T07:28:50.052Z,979.47
2018-01-18T07:29:50.060Z,979.41
2018-01-18T07:30:50.077Z,979.46
2018-01-18T07:31:50.102Z,979.37
2018-01-18T07:32:50.113Z,979.54
2018-01-18T07:33:50.142Z,979.48
2018-01-18T07:34:50.148Z,979.54
2018-01-18T07:35:50.167Z,979.47
2018-01-18T07:36:50.195Z,979.30
2018-01-18T07:37:50.207Z,979.34
2018-01-18T07:38:50.220Z,979.23
2018-01-18T07:39:50.237Z,979.21
2018-01-18T07:40:50.261Z,979.25
2018-01-18T07:41:50.272Z,979.00
2018-01-18T07:42:50.290Z,979.26
2018-01-18T07:43:50.313Z,979.09
2018-01-18T07:44:50.331Z,979.08
2018-01-18T07:45:50.350Z,979.06
2018-01-18T07:46:50.362Z,978.97
2018-01-18T07:47:50.389Z,979.04
2018-01-18T07:48:50.399Z,978.99
2018-01-18T07:49:50.422Z,978.92
2018-01-18T07:50:50.435Z,979.14
2018-01-18T07:51:50.458Z,978.84
2018-01-18T07:52:50.471Z,978.79
2018-01-18T07:53:50.495Z,978.86
2018-01-18T07:54:50.508Z,978.84
2018-01-18T07:55:50.532Z,978.75
2018-01-18T07:56:50.544Z,978.72
2018-01-18T07:57:50.562Z,978.63
2018-01-18T07:58:50.632Z,978.63
2018-01-18T07:59:50.598Z,978.53
2018-01-18T08:00:50.617Z,978.49
2018-01-18T08:01:50.634Z,978.61
2018-01-18T08:02:50.653Z,978.66
2018-01-18T08:03:50.675Z,978.57
2018-01-18T08:04:50.696Z,978.52
2018-01-18T08:05:50.714Z,978.63
2018-01-18T08:06:50.726Z,978.70
2018-01-18T08:07:50.746Z,978.41
2018-01-18T08:08:50.773Z,978.58
2018-01-18T08:09:50.787Z,978.42
2018-01-18T08:10:50.800Z,978.41
2018-01-18T08:11:50.819Z,978.50
2018-01-18T08:12:50.843Z,978.43
2018-01-18T08:13:50.861Z,978.39
2018-01-18T08:14:50.874Z,978.24
2018-01-18T08:15:50.900Z,978.15
2018-01-18T08:16:50.918Z,978.12
2018-01-18T08:17:50.937Z,978.07
2018-01-18T08:18:50.958Z,978.00
2018-01-18T08:19:50.974Z,977.97
2018-01-18T08:20:50.990Z,978.07
2018-01-18T08:21:51.005Z,978.04
2018-01-18T08:22:51.029Z,978.01
2018-01-18T08:23:51.048Z,977.74
2018-01-18T08:24:51.061Z,978.00
2018-01-18T08:25:51.084Z,977.81
2018-01-18T08:26:51.105Z,977.87
2018-01-18T08:27:51.124Z,977.75
2018-01-18T08:28:51.139Z,977.88
2018-01-18T08:29:51.156Z,977.96
2018-01-18T08:30:51.180Z,977.84
2018-01-18T08:31:51.202Z,977.89
2018-01-18T08:32:51.219Z,978.03
2018-01-18T08:33:51.232Z,977.97
2018-01-18T08:34:51.251Z,978.00
2018-01-18T08:35:51.283Z,977.96
2018-01-18T08:36:51.290Z,977.78
2018-01-18T08:37:51.314Z,977.89
2018-01-18T08:38:51.331Z,977.76
2018-01-18T08:39:51.356Z,977.76
2018-01-18T08:40:51.370Z,977.88
2018-01-18T08:41:51.397Z,977.71
2018-01-18T08:42:51.406Z,977.68
2018-01-18T08:43:51.431Z,977.66
2018-01-18T08:44:51.450Z,977.68
2018-01-18T08:45:51.463Z,977.58
2018-01-18T08:46:51.522Z,977.58
2018-01-18T08:47:51.503Z,977.48
2018-01-18T08:48:51.528Z,977.23
2018-01-18T08:49:51.547Z,977.34
2018-01-18T08:50:51.560Z,977.61
2018-01-18T08:51:51.586Z,977.69
2018-01-18T08:52:51.606Z,977.76
2018-01-18T08:53:51.619Z,977.62
2018-01-18T08:54:51.645Z,977.63
2018-01-18T08:55:51.659Z,977.58
2018-01-18T08:56:51.684Z,977.53
2018-01-18T08:57:51.699Z,977.48
2018-01-18T08:58:51.724Z,977.40
2018-01-18T08:59:51.737Z,977.42
2018-01-18T09:00:51.763Z,977.49
2018-01-18T09:01:51.775Z,977.73
2018-01-18T09:02:51.798Z,977.43
2018-01-18T09:03:51.816Z,977.54
2018-01-18T09:04:51.836Z,977.17
2018-01-18T09:05:51.860Z,977.28
2018-01-18T09:06:51.874Z,977.34
2018-01-18T09:07:51.896Z,977.26
2018-01-18T09:08:51.921Z,977.25
2018-01-18T09:09:51.933Z,977.37
2018-01-18T09:10:51.961Z,977.40
2018-01-18T09:11:51.973Z,977.36
2018-01-18T09:12:51.999Z,977.31
2018-01-18T09:13:52.012Z,977.43
2018-01-18T09:14:52.039Z,977.41
2018-01-18T09:15:52.053Z,977.17
2018-01-18T09:16:52.077Z,977.07
2018-01-18T09:17:52.098Z,977.00
2018-01-18T09:18:52.110Z,976.78
2018-01-18T09:19:52.138Z,976.97
2018-01-18T09:20:52.153Z,976.89
2018-01-18T09:21:52.175Z,976.62
2018-01-18T09:22:52.195Z,977.14
2018-01-18T09:23:52.215Z,977.16
2018-01-18T09:24:52.230Z,977.02
2018-01-18T09:25:52.254Z,977.20
2018-01-18T09:26:52.268Z,976.98
2018-01-18T09:27:52.290Z,977.11
2018-01-18T09:28:52.315Z,977.13
2018-01-18T09:29:52.334Z,977.34
2018-01-18T09:30:52.350Z,976.96
2018-01-18T09:31:52.369Z,977.14
2018-01-18T09:32:52.395Z,977.33
2018-01-18T09:33:52.407Z,977.08
2018-01-18T09:34:52.437Z,977.12
2018-01-18T09:35:52.448Z,977.13
2018-01-18T09:36:52.476Z,977.21
2018-01-18T09:37:52.488Z,977.06
2018-01-18T09:38:52.515Z,977.03
2018-01-18T09:39:52.530Z,977.10
2018-01-18T09:40:52.555Z,977.00
2018-01-18T09:41:52.574Z,977.15
2018-01-18T09:42:52.591Z,976.92
2018-01-18T09:43:52.610Z,977.10
2018-01-18T09:44:52.637Z,977.30
2018-01-18T09:45:52.655Z,977.02
2018-01-18T09:46:52.670Z,977.17
2018-01-18T09:47:52.691Z,977.25
2018-01-18T09:48:52.717Z,977.65
2018-01-18T09:49:52.731Z,977.53
2018-01-18T09:50:52.757Z,977.27
2018-01-18T09:51:52.778Z,977.39
2018-01-18T09:52:52.835Z,977.07
2018-01-18T09:53:52.815Z,977.41
2018-01-18T09:54:52.839Z,977.39
2018-01-18T09:55:52.861Z,976.95
2018-01-18T09:56:52.875Z,977.09
2018-01-18T09:57:52.902Z,977.54
2018-01-18T09:58:52.916Z,977.01
2018-01-18T09:59:52.945Z,977.26
2018-01-18T10:00:52.959Z,977.32
2018-01-18T10:01:52.984Z,977.25
2018-01-18T10:02:52.999Z,977.46
2018-01-18T10:03:53.032Z,977.18
2018-01-18T10:04:53.042Z,977.26
2018-01-18T10:05:53.067Z,977.28
2018-01-18T10:06:53.081Z,977.08
2018-01-18T10:07:53.102Z,977.12
2018-01-18T10:08:53.130Z,977.05
2018-01-18T10:09:53.147Z,977.09
2018-01-18T10:10:53.164Z,976.94
2018-01-18T10:11:53.183Z,977.01
2018-01-18T10:12:53.209Z,976.61
2018-01-18T10:13:53.223Z,977.24
2018-01-18T10:14:53.250Z,977.15
2018-01-18T10:15:53.265Z,977.18
2018-01-18T10:16:53.290Z,977.01
2018-01-18T10:17:53.304Z,976.91
2018-01-18T10:18:53.329Z,976.89
2018-01-18T10:19:53.344Z,976.84
2018-01-18T10:20:53.369Z,976.92
2018-01-18T10:21:53.384Z,977.12
2018-01-18T10:22:53.409Z,976.96
2018-01-18T10:23:53.423Z,977.34
2018-01-18T10:24:53.448Z,977.05
2018-01-18T10:25:53.462Z,977.00
2018-01-18T10:26:53.487Z,977.25
2018-01-18T10:27:53.502Z,977.22
2018-01-18T10:28:53.529Z,977.35
2018-01-18T10:29:53.548Z,977.36
2018-01-18T10:30:53.561Z,976.91
2018-01-18T10:31:53.585Z,977.09
2018-01-18T10:32:53.607Z,977.03
2018-01-18T10:33:53.625Z,976.94
2018-01-18T10:34:53.640Z,976.89
2018-01-18T10:35:53.659Z,976.94
2018-01-18T10:36:53.685Z,976.81
2018-01-18T10:37:53.704Z,977.16
2018-01-18T10:38:53.718Z,977.09
2018-01-18T10:39:53.739Z,976.69
2018-01-18T10:40:53.764Z,976.81
2018-01-18T10:41:53.782Z,976.95
2018-01-18T10:42:53.797Z,977.26
2018-01-18T10:43:53.816Z,977.26
2018-01-18T10:44:53.841Z,977.18
2018-01-18T10:45:53.860Z,977.15
2018-01-18T10:46:53.874Z,977.18
2018-01-18T10:47:53.893Z,977.22
2018-01-18T10:48:53.919Z,977.13
2018-01-18T10:49:53.938Z,977.17
2018-01-18T10:50:53.951Z,977.30
2018-01-18T10:51:53.970Z,977.15
2018-01-18T10:52:54.002Z,977.26
2018-01-18T10:53:54.019Z,976.64
2018-01-18T10:54:54.029Z,977.34
2018-01-18T10:55:54.047Z,977.43
2018-01-18T10:56:54.072Z,977.42
2018-01-18T10:57:54.089Z,977.34
2018-01-18T10:58:54.328Z,978.04
2018-01-18T10:59:54.152Z,977.78
2018-01-18T11:00:54.148Z,977.35
2018-01-18T11:01:54.166Z,977.54
2018-01-18T11:02:54.180Z,977.66
2018-01-18T11:03:54.204Z,977.60
2018-01-18T11:04:54.217Z,977.89
2018-01-18T11:05:54.240Z,978.12
2018-01-18T11:06:54.254Z,977.89
2018-01-18T11:07:54.278Z,977.93
2018-01-18T11:08:54.291Z,978.01
2018-01-18T11:09:54.315Z,977.76
2018-01-18T11:10:54.345Z,978.02
2018-01-18T11:11:54.353Z,978.45
2018-01-18T11:12:54.366Z,977.97
2018-01-18T11:13:54.389Z,978.41
2018-01-18T11:14:54.403Z,978.42
2018-01-18T11:15:54.430Z,978.39
2018-01-18T11:16:54.440Z,978.21
2018-01-18T11:17:54.457Z,978.73
2018-01-18T11:18:54.500Z,978.46
2018-01-18T11:19:54.495Z,978.36
2018-01-18T11:20:54.520Z,978.58
2018-01-18T11:21:54.534Z,979.20
2018-01-18T11:22:54.556Z,978.73
2018-01-18T11:23:54.569Z,978.92
2018-01-18T11:24:54.594Z,978.92
2018-01-18T11:25:54.612Z,979.17
2018-01-18T11:26:54.626Z,979.10
2018-01-18T11:27:54.652Z,979.19
2018-01-18T11:28:54.667Z,979.64
2018-01-18T11:29:54.684Z,979.52
2018-01-18T11:30:54.703Z,979.29
2018-01-18T11:31:54.722Z,979.65
2018-01-18T11:32:54.735Z,979.72
2018-01-18T11:33:54.752Z,979.80
2018-01-18T11:34:54.778Z,979.80
2018-01-18T11:35:54.799Z,980.19
2018-01-18T11:36:54.809Z,979.98
2018-01-18T11:37:54.826Z,979.64
2018-01-18T11:38:54.850Z,980.18
2018-01-18T11:39:54.869Z,980.40
2018-01-18T11:40:54.881Z,979.90
2018-01-18T11:41:54.899Z,980.11
2018-01-18T11:42:54.924Z,980.52
2018-01-18T11:43:54.939Z,980.47
2018-01-18T11:44:54.956Z,980.47
2018-01-18T11:45:54.974Z,980.67
2018-01-18T11:46:54.991Z,980.97
2018-01-18T11:47:55.010Z,980.68
2018-01-18T11:48:55.035Z,981.18
2018-01-18T11:49:55.047Z,981.15
2018-01-18T11:50:55.073Z,981.32
2018-01-18T11:51:55.090Z,981.60
2018-01-18T11:52:55.103Z,981.16
2018-01-18T11:53:55.127Z,981.49
2018-01-18T11:54:55.146Z,981.60
2018-01-18T11:55:55.164Z,981.66
2018-01-18T11:56:55.178Z,981.45
2018-01-18T11:57:55.201Z,981.82
2018-01-18T11:58:55.220Z,981.81
2018-01-18T11:59:55.238Z,982.33
2018-01-18T12:00:55.251Z,981.99
2018-01-18T12:01:55.270Z,982.24
2018-01-18T12:02:55.294Z,982.15
2018-01-18T12:03:55.307Z,982.93
2018-01-18T12:04:55.326Z,981.99
2018-01-18T12:05:55.351Z,982.35
2018-01-18T12:06:55.363Z,982.59
2018-01-18T12:07:55.392Z,982.52
2018-01-18T12:08:55.401Z,982.61
2018-01-18T12:09:55.424Z,982.85
2018-01-18T12:10:55.437Z,982.83
2018-01-18T12:11:55.463Z,983.11
2018-01-18T12:12:55.475Z,983.08
2018-01-18T12:13:55.494Z,983.04
2018-01-18T12:14:55.512Z,983.12
2018-01-18T12:15:55.537Z,983.22
2018-01-18T12:16:55.556Z,983.35
2018-01-18T12:17:55.576Z,983.62
2018-01-18T12:18:55.587Z,983.36
2018-01-18T12:19:55.613Z,983.69
2018-01-18T12:20:55.631Z,983.70
2018-01-18T12:21:55.643Z,983.84
2018-01-18T12:22:55.668Z,983.82
2018-01-18T12:23:55.682Z,983.79
2018-01-18T12:24:55.706Z,983.79
2018-01-18T12:25:55.717Z,984.17
2018-01-18T12:26:55.743Z,984.13
2018-01-18T12:27:55.756Z,984.32
2018-01-18T12:28:55.780Z,984.20